Mr Thomas — WDD7163 — position and weather

sailwx.info

Track history (hours):
 
Tides and Currents Weather Stations Pressure Air Temp Water Temp Dewpoint Dewpoint Depression Visibility Wind Speed Wind Dir Waves Ship Positions

Mr Thomas

Owner: CENTRAL BOAT RENTALS, BERWICK, LA. More information available from US FCC via Universal Licensing System and Coast Guard Vessel Documentation Center.

Last reported at 2016-May-27 00:15 UTC. Time now 2016-May-31 03:58 UTC.
Position N 29°32' W 090°51'.

Length 21 m; draft 2.5 m.

Type: Tug. MMSI: 367182730.

Date/timePositionNaut miles runAvg speedWind from/ knotsBaromVisibWave heightAir tempDewpointWater temp
2016-May-27 00:15N 29°32' W 090°51'5 7.0
2016-May-26 23:33N 29°32' W 090°46'3 2.9
2016-May-26 22:32N 29°34' W 090°43'0 0.5
2016-May-26 21:33N 29°34' W 090°43'7 7.0
2016-May-26 20:33N 29°27' W 090°43'4 0.2
2016-May-25 20:05N 29°23' W 090°44'4 7.2
2016-May-25 19:33N 29°26' W 090°43'7 7.3
2016-May-25 18:33N 29°34' W 090°43'6 6.4
2016-May-25 17:33N 29°32' W 090°50'  
2016-May-21 15:23N 29°32' W 090°51'5 6.5
2016-May-21 14:34N 29°33' W 090°45'4 3.7
2016-May-21 13:34N 29°30' W 090°43'7 7.2
2016-May-21 12:34N 29°23' W 090°44'2 0.2
2016-May-21 02:33N 29°24' W 090°44'6 5.8
2016-May-21 01:34N 29°30' W 090°43'4 3.9
2016-May-21 00:33N 29°34' W 090°43'2 2.2
2016-May-20 23:31N 29°33' W 090°45'0 0.0
2016-May-20 22:31N 29°33' W 090°45'0 0.0
2016-May-20 21:31N 29°33' W 090°45'3 2.7
2016-May-20 20:34N 29°32' W 090°48'6 6.2
2016-May-20 19:34N 29°34' W 090°55'  
Track history (hours):
 
Tides and Currents Weather Stations Pressure Air Temp Water Temp Dewpoint Dewpoint Depression Visibility Wind Speed Wind Dir Waves Ship Positions

Mr Thomas

Owner: CENTRAL BOAT RENTALS, BERWICK, LA. More information available from US FCC via Universal Licensing System and Coast Guard Vessel Documentation Center.

Last reported at 2016-May-27 00:15 UTC. Time now 2016-May-31 03:58 UTC.
Position N 29°32' W 090°51'.

Length 21 m; draft 2.5 m.

Type: Tug. MMSI: 367182730.

Date/timePositionNaut miles runAvg speedWind from/ knotsBaromVisibWave heightAir tempDewpointWater temp
2016-May-27 00:15N 29°32' W 090°51'5 7.0
2016-May-26 23:33N 29°32' W 090°46'3 2.9
2016-May-26 22:32N 29°34' W 090°43'0 0.5
2016-May-26 21:33N 29°34' W 090°43'7 7.0
2016-May-26 20:33N 29°27' W 090°43'4 0.2
2016-May-25 20:05N 29°23' W 090°44'4 7.2
2016-May-25 19:33N 29°26' W 090°43'7 7.3
2016-May-25 18:33N 29°34' W 090°43'6 6.4
2016-May-25 17:33N 29°32' W 090°50'  
2016-May-21 15:23N 29°32' W 090°51'5 6.5
2016-May-21 14:34N 29°33' W 090°45'4 3.7
2016-May-21 13:34N 29°30' W 090°43'7 7.2
2016-May-21 12:34N 29°23' W 090°44'2 0.2
2016-May-21 02:33N 29°24' W 090°44'6 5.8
2016-May-21 01:34N 29°30' W 090°43'4 3.9
2016-May-21 00:33N 29°34' W 090°43'2 2.2
2016-May-20 23:31N 29°33' W 090°45'0 0.0
2016-May-20 22:31N 29°33' W 090°45'0 0.0
2016-May-20 21:31N 29°33' W 090°45'3 2.7
2016-May-20 20:34N 29°32' W 090°48'6 6.2
2016-May-20 19:34N 29°34' W 090°55'  

Dump ship's entire track history